createdAt,value
2019-04-26T00:00:10.187Z,9.00
2019-04-26T00:02:49.372Z,9.02
2019-04-26T00:05:18.509Z,9.16
2019-04-26T00:07:47.147Z,9.17
2019-04-26T00:10:26.525Z,9.11
2019-04-26T00:13:05.907Z,9.00
2019-04-26T00:15:36.205Z,8.93
2019-04-26T00:18:05.506Z,8.90
2019-04-26T00:20:33.893Z,8.83
2019-04-26T00:23:02.306Z,8.84
2019-04-26T00:25:30.702Z,8.82
2019-04-26T00:27:59.114Z,8.82
2019-04-26T00:30:27.549Z,8.78
2019-04-26T00:32:55.946Z,8.79
2019-04-26T00:35:24.337Z,8.89
2019-04-26T00:37:52.821Z,8.86
2019-04-26T00:40:22.363Z,8.86
2019-04-26T00:42:51.823Z,8.77
2019-04-26T00:45:21.268Z,8.77
2019-04-26T00:47:51.215Z,8.67
2019-04-26T00:50:21.229Z,8.66
2019-04-26T00:52:51.126Z,8.74
2019-04-26T00:55:21.908Z,8.86
2019-04-26T00:57:51.404Z,9.01
2019-04-26T01:00:21.514Z,8.92
2019-04-26T01:02:54.432Z,8.81
2019-04-26T01:05:23.121Z,8.69
2019-04-26T01:07:53.253Z,8.74
2019-04-26T01:10:21.772Z,8.84
2019-04-26T01:12:50.199Z,8.91
2019-04-26T01:15:19.941Z,8.94
2019-04-26T01:17:48.763Z,8.84
2019-04-26T01:20:18.929Z,8.84
2019-04-26T01:22:50.421Z,8.87
2019-04-26T01:25:33.147Z,8.77
2019-04-26T01:28:02.684Z,8.80
2019-04-26T01:30:32.858Z,8.81
2019-04-26T01:33:02.905Z,8.78
2019-04-26T01:35:31.771Z,8.80
2019-04-26T01:38:03.455Z,8.86
2019-04-26T01:40:33.645Z,8.92
2019-04-26T01:43:03.785Z,8.98
2019-04-26T01:45:48.560Z,9.03
2019-04-26T01:48:37.791Z,8.96
2019-04-26T01:51:06.945Z,8.93
2019-04-26T01:53:35.886Z,8.82
2019-04-26T01:56:04.681Z,8.78
2019-04-26T01:58:33.148Z,8.88
2019-04-26T02:01:13.171Z,8.87
2019-04-26T02:03:41.583Z,8.80
2019-04-26T02:06:10.146Z,8.80
2019-04-26T02:08:39.135Z,8.74
2019-04-26T02:11:07.859Z,8.72
2019-04-26T02:13:36.266Z,8.74
2019-04-26T02:16:05.017Z,8.72
2019-04-26T02:18:33.654Z,8.64
2019-04-26T02:21:09.238Z,8.66
2019-04-26T02:23:42.408Z,8.70
2019-04-26T02:26:30.350Z,8.83
2019-04-26T02:28:58.817Z,8.91
2019-04-26T02:31:29.318Z,9.00
2019-04-26T02:33:58.814Z,9.08
2019-04-26T02:36:48.383Z,9.14
2019-04-26T02:39:01.252Z,9.18
2019-04-26T02:41:32.051Z,9.17
2019-04-26T02:44:03.809Z,9.08
2019-04-26T02:46:48.830Z,9.08
2019-04-26T02:49:19.897Z,9.12
2019-04-26T02:52:06.231Z,9.18
2019-04-26T02:54:46.588Z,9.17
2019-04-26T02:57:18.038Z,9.23
2019-04-26T02:59:48.778Z,9.23
2019-04-26T03:02:22.134Z,9.39
2019-04-26T03:04:53.317Z,9.46
2019-04-26T03:07:32.148Z,9.45
2019-04-26T03:10:01.222Z,9.41
2019-04-26T03:12:34.418Z,9.41
2019-04-26T03:15:13.990Z,9.39
2019-04-26T03:17:50.029Z,9.39
2019-04-26T03:20:23.119Z,9.43
2019-04-26T03:23:03.123Z,9.41
2019-04-26T03:25:43.607Z,9.44
2019-04-26T03:28:15.088Z,9.43
2019-04-26T03:31:18.529Z,9.42
2019-04-26T03:33:59.293Z,9.35
2019-04-26T03:36:40.642Z,9.24
2019-04-26T03:39:18.235Z,9.20
2019-04-26T03:42:00.123Z,9.22
2019-04-26T03:44:41.141Z,9.18
2019-04-26T03:47:13.376Z,9.16
2019-04-26T03:49:54.536Z,9.08
2019-04-26T03:52:44.142Z,9.03
2019-04-26T03:55:29.585Z,9.05
2019-04-26T03:58:05.499Z,9.04
2019-04-26T04:00:45.183Z,9.10
2019-04-26T04:03:27.489Z,9.18
2019-04-26T04:05:59.954Z,9.26
2019-04-26T04:08:49.277Z,9.17
2019-04-26T04:11:23.533Z,9.06
2019-04-26T04:14:04.081Z,8.99
2019-04-26T04:16:49.447Z,8.97
2019-04-26T04:19:59.148Z,9.04
2019-04-26T04:22:33.421Z,9.08
2019-04-26T04:25:07.568Z,9.05
2019-04-26T04:27:51.703Z,9.06
2019-04-26T04:30:47.717Z,9.11
2019-04-26T04:33:22.831Z,9.16
2019-04-26T04:35:54.289Z,9.28
2019-04-26T04:38:46.398Z,9.34
2019-04-26T04:41:23.291Z,9.37
2019-04-26T04:44:32.749Z,9.52
2019-04-26T04:47:23.528Z,9.52
2019-04-26T04:49:58.972Z,9.57
2019-04-26T04:52:36.014Z,9.65
2019-04-26T04:55:28.538Z,9.76
2019-04-26T04:58:08.686Z,9.85
2019-04-26T05:01:21.353Z,9.89
2019-04-26T05:04:06.553Z,10.01
2019-04-26T05:07:05.171Z,9.95
2019-04-26T05:09:45.337Z,9.92
2019-04-26T05:12:25.845Z,9.90
2019-04-26T05:15:07.441Z,9.89
2019-04-26T05:17:56.871Z,9.86
2019-04-26T05:20:37.275Z,9.88
2019-04-26T05:23:23.072Z,9.81
2019-04-26T05:25:59.045Z,9.68
2019-04-26T05:31:22.318Z,9.56
2019-04-26T05:34:03.786Z,9.45
2019-04-26T05:36:41.355Z,9.39
2019-04-26T05:39:24.958Z,9.30
2019-04-26T05:42:22.376Z,9.26
2019-04-26T05:45:07.546Z,9.33
2019-04-26T05:47:46.456Z,9.33
2019-04-26T05:50:58.989Z,9.33
2019-04-26T05:53:59.164Z,9.45
2019-04-26T05:56:47.405Z,9.62
2019-04-26T05:59:31.699Z,9.77
2019-04-26T06:02:14.017Z,9.81
2019-04-26T06:05:06.746Z,9.77
2019-04-26T06:07:54.667Z,9.81
2019-04-26T06:10:28.088Z,9.80
2019-04-26T06:13:19.957Z,9.87
2019-04-26T06:16:17.235Z,10.02
2019-04-26T06:19:06.057Z,9.96
2019-04-26T06:21:42.837Z,9.84
2019-04-26T06:24:19.974Z,9.77
2019-04-26T06:27:14.349Z,9.81
2019-04-26T06:29:58.659Z,9.78
2019-04-26T06:32:39.502Z,9.82
2019-04-26T06:35:19.868Z,9.80
2019-04-26T06:38:17.602Z,9.68
2019-04-26T06:41:05.262Z,9.61
2019-04-26T06:43:41.017Z,9.57
2019-04-26T06:46:28.940Z,9.44
2019-04-26T06:49:14.279Z,9.40
2019-04-26T06:52:16.185Z,9.42
2019-04-26T06:54:57.689Z,9.36
2019-04-26T06:58:07.344Z,9.28
2019-04-26T07:01:11.391Z,9.29
2019-04-26T07:04:05.645Z,9.32
2019-04-26T07:06:53.670Z,9.34
2019-04-26T07:09:25.104Z,9.40
2019-04-26T07:12:25.525Z,9.45
2019-04-26T07:15:28.425Z,9.44
2019-04-26T07:18:16.283Z,9.45
2019-04-26T07:20:52.667Z,9.51
2019-04-26T07:23:40.774Z,9.55
2019-04-26T07:26:45.797Z,9.58
2019-04-26T07:29:41.650Z,9.61
2019-04-26T07:32:18.971Z,9.65
2019-04-26T07:35:02.621Z,9.86
2019-04-26T07:38:09.248Z,9.97
2019-04-26T07:40:57.505Z,9.97
2019-04-26T07:43:54.652Z,10.08
2019-04-26T07:46:35.219Z,10.14
2019-04-26T07:49:23.154Z,10.30
2019-04-26T07:52:27.999Z,10.40
2019-04-26T07:55:19.109Z,10.42
2019-04-26T07:58:23.782Z,10.41
2019-04-26T08:00:59.468Z,10.42
2019-04-26T08:03:32.575Z,10.41
2019-04-26T08:06:21.717Z,10.46
2019-04-26T08:09:05.959Z,10.48
2019-04-26T08:11:40.154Z,10.44
2019-04-26T08:14:14.771Z,10.49
2019-04-26T08:17:05.308Z,10.43
2019-04-26T08:19:40.185Z,10.42
2019-04-26T08:22:20.385Z,10.46
2019-04-26T08:24:45.710Z,10.48
2019-04-26T08:27:23.328Z,10.59
2019-04-26T08:29:50.703Z,10.59
2019-04-26T08:32:28.238Z,10.71
2019-04-26T08:34:58.054Z,10.91
2019-04-26T08:37:36.515Z,10.94
2019-04-26T08:40:05.741Z,10.97
2019-04-26T08:42:45.848Z,11.04
2019-04-26T08:45:21.809Z,11.26
2019-04-26T08:47:58.097Z,11.44
2019-04-26T08:50:29.614Z,11.73
2019-04-26T08:53:01.063Z,11.84
2019-04-26T08:55:31.747Z,11.91
2019-04-26T08:58:03.215Z,11.93
2019-04-26T09:00:42.193Z,12.07
2019-04-26T09:03:32.328Z,12.23
2019-04-26T09:06:20.954Z,12.16
2019-04-26T09:08:51.576Z,12.25
2019-04-26T09:11:25.773Z,12.30
2019-04-26T09:13:53.973Z,12.26
2019-04-26T09:16:26.157Z,12.16
2019-04-26T09:18:59.372Z,12.06
2019-04-26T09:21:28.935Z,11.95
2019-04-26T09:24:14.425Z,11.92
2019-04-26T09:26:48.504Z,11.76
2019-04-26T09:29:30.400Z,11.77
2019-04-26T09:31:59.249Z,11.81
2019-04-26T09:34:35.039Z,11.80
2019-04-26T09:37:03.451Z,11.86
2019-04-26T09:39:31.847Z,11.93
2019-04-26T09:42:05.902Z,12.04
2019-04-26T09:44:41.456Z,12.31
2019-04-26T09:47:11.769Z,12.58
2019-04-26T09:49:54.117Z,12.65
2019-04-26T09:52:26.935Z,12.52
2019-04-26T09:54:55.347Z,12.47
2019-04-26T09:57:23.748Z,12.49
2019-04-26T09:59:52.179Z,12.46
2019-04-26T10:02:20.657Z,12.57
2019-04-26T10:04:49.563Z,12.81
2019-04-26T10:07:17.984Z,13.02
2019-04-26T10:09:46.404Z,13.08
2019-04-26T10:12:16.685Z,13.30
2019-04-26T10:14:55.462Z,13.47
2019-04-26T10:17:25.538Z,13.44
2019-04-26T10:19:55.006Z,13.29
2019-04-26T10:22:25.085Z,13.22
2019-04-26T10:24:53.509Z,13.22
2019-04-26T10:27:21.914Z,13.23
2019-04-26T10:29:50.385Z,13.33
2019-04-26T10:32:21.788Z,13.62
2019-04-26T10:34:49.021Z,13.86
2019-04-26T10:37:17.386Z,13.94
2019-04-26T10:39:45.811Z,13.74
2019-04-26T10:42:15.395Z,13.66
2019-04-26T10:44:43.811Z,13.64
2019-04-26T10:47:12.387Z,13.67
2019-04-26T10:49:43.744Z,13.61
2019-04-26T10:52:15.772Z,13.50
2019-04-26T10:55:03.444Z,13.50
2019-04-26T10:57:39.203Z,13.50
2019-04-26T11:00:10.198Z,13.71
2019-04-26T11:02:38.613Z,13.91
2019-04-26T11:05:07.751Z,13.95
2019-04-26T11:07:36.175Z,14.04
2019-04-26T11:10:06.395Z,14.19
2019-04-26T11:12:34.794Z,14.35
2019-04-26T11:15:06.043Z,14.51
2019-04-26T11:17:33.422Z,14.55
2019-04-26T11:20:01.829Z,14.39
2019-04-26T11:22:33.475Z,14.31
2019-04-26T11:25:00.371Z,14.48
2019-04-26T11:27:29.439Z,14.84
2019-04-26T11:29:59.671Z,15.14
2019-04-26T11:32:28.060Z,15.50
2019-04-26T11:34:58.750Z,15.65
2019-04-26T11:37:26.715Z,15.79
2019-04-26T11:39:55.115Z,15.91
2019-04-26T11:42:23.527Z,16.11
2019-04-26T11:44:52.240Z,16.46
2019-04-26T11:47:20.643Z,16.45
2019-04-26T11:49:50.090Z,16.38
2019-04-26T11:52:18.714Z,16.20
2019-04-26T11:54:47.122Z,16.11
2019-04-26T11:57:15.511Z,15.98
2019-04-26T11:59:43.941Z,15.94
2019-04-26T12:02:15.896Z,15.90
2019-04-26T12:04:49.616Z,16.04
2019-04-26T12:07:18.887Z,16.16
2019-04-26T12:09:48.924Z,16.26
2019-04-26T12:12:17.396Z,16.28
2019-04-26T12:14:45.819Z,16.20
2019-04-26T12:17:14.227Z,15.98
2019-04-26T12:19:42.611Z,16.00
2019-04-26T12:22:11.215Z,16.15
2019-04-26T12:24:39.631Z,16.38
2019-04-26T12:27:10.223Z,16.68
2019-04-26T12:29:38.593Z,16.85
2019-04-26T12:32:06.980Z,16.78
2019-04-26T12:34:35.359Z,16.71
2019-04-26T12:37:03.942Z,16.57
2019-04-26T12:39:36.475Z,16.60
2019-04-26T12:42:02.724Z,16.60
2019-04-26T12:44:36.831Z,16.57
2019-04-26T12:47:05.189Z,16.72
2019-04-26T12:49:35.398Z,17.05
2019-04-26T12:52:04.137Z,17.45
2019-04-26T12:54:32.540Z,17.81
2019-04-26T12:57:01.661Z,17.96
2019-04-26T12:59:43.318Z,18.09
2019-04-26T13:02:05.814Z,18.13
2019-04-26T13:04:36.335Z,18.20
2019-04-26T13:07:22.735Z,18.29
2019-04-26T13:09:42.109Z,18.41
2019-04-26T13:12:12.141Z,18.45
2019-04-26T13:14:56.924Z,18.33
2019-04-26T13:17:35.782Z,18.35
2019-04-26T13:20:03.506Z,18.13
2019-04-26T13:22:32.200Z,17.95
2019-04-26T13:25:01.674Z,17.72
2019-04-26T13:27:30.105Z,17.67
2019-04-26T13:30:02.352Z,17.64
2019-04-26T13:32:28.639Z,17.59
2019-04-26T13:34:58.005Z,17.61
2019-04-26T13:37:26.413Z,17.65
2019-04-26T13:39:55.331Z,17.72
2019-04-26T13:42:25.091Z,17.68
2019-04-26T13:44:57.845Z,17.74
2019-04-26T13:47:34.013Z,17.63
2019-04-26T13:50:04.052Z,17.37
2019-04-26T13:52:32.452Z,17.14
2019-04-26T13:55:01.150Z,17.26
2019-04-26T13:57:29.554Z,17.30
2019-04-26T13:59:57.957Z,17.37
2019-04-26T14:02:26.386Z,17.48
2019-04-26T14:04:54.786Z,17.61
2019-04-26T14:07:24.437Z,17.68
2019-04-26T14:09:53.778Z,17.64
2019-04-26T14:12:22.170Z,17.81
2019-04-26T14:14:50.583Z,17.85
2019-04-26T14:17:19.100Z,17.87
2019-04-26T14:19:49.615Z,17.96
2019-04-26T14:22:19.273Z,17.96
2019-04-26T14:24:49.358Z,17.79
2019-04-26T14:27:19.428Z,17.59
2019-04-26T14:29:47.833Z,17.42
2019-04-26T14:32:16.244Z,17.36
2019-04-26T14:34:45.288Z,17.21
2019-04-26T14:37:15.590Z,17.04
2019-04-26T14:39:50.719Z,17.15
2019-04-26T14:42:13.980Z,17.32
2019-04-26T14:44:49.317Z,17.52
2019-04-26T14:47:14.125Z,17.30
2019-04-26T14:49:43.103Z,17.06
2019-04-26T14:52:11.621Z,16.98
2019-04-26T14:54:41.537Z,17.03
2019-04-26T14:57:16.986Z,17.06
2019-04-26T14:59:46.962Z,16.97
2019-04-26T15:02:33.135Z,17.09
2019-04-26T15:05:22.246Z,17.12
2019-04-26T15:07:52.021Z,16.92
2019-04-26T15:10:22.492Z,16.95
2019-04-26T15:12:58.544Z,17.05
2019-04-26T15:15:21.438Z,16.97
2019-04-26T15:17:55.130Z,17.06
2019-04-26T15:20:20.819Z,17.14
2019-04-26T15:22:50.565Z,17.30
2019-04-26T15:25:18.950Z,17.34
2019-04-26T15:27:47.987Z,17.25
2019-04-26T15:30:16.508Z,17.08
2019-04-26T15:32:44.902Z,17.02
2019-04-26T15:35:16.132Z,16.89
2019-04-26T15:37:43.447Z,16.78
2019-04-26T15:40:13.616Z,16.74
2019-04-26T15:42:58.727Z,16.69
2019-04-26T15:45:38.731Z,16.70
2019-04-26T15:48:09.961Z,16.81
2019-04-26T15:50:49.488Z,16.93
2019-04-26T15:53:14.774Z,17.00
2019-04-26T15:55:43.648Z,16.98
2019-04-26T15:58:12.082Z,16.93
2019-04-26T16:00:40.552Z,17.02
2019-04-26T16:03:08.942Z,17.06
2019-04-26T16:05:37.356Z,17.05
2019-04-26T16:08:05.822Z,17.05
2019-04-26T16:10:38.208Z,16.87
2019-04-26T16:13:18.122Z,16.83
2019-04-26T16:15:34.585Z,16.82
2019-04-26T16:18:04.230Z,16.89
2019-04-26T16:20:37.587Z,16.96
2019-04-26T16:23:05.793Z,16.95
2019-04-26T16:25:34.357Z,17.00
2019-04-26T16:28:22.735Z,17.09
2019-04-26T16:30:55.648Z,17.13
2019-04-26T16:33:28.437Z,17.17
2019-04-26T16:35:57.404Z,17.17
2019-04-26T16:38:33.728Z,17.15
2019-04-26T16:41:03.272Z,17.19
2019-04-26T16:43:37.800Z,17.22
2019-04-26T16:46:02.353Z,17.21
2019-04-26T16:48:30.886Z,17.18
2019-04-26T16:51:00.902Z,17.21
2019-04-26T16:53:43.669Z,17.13
2019-04-26T16:55:59.545Z,17.02
2019-04-26T16:58:34.803Z,16.86
2019-04-26T17:00:58.354Z,16.69
2019-04-26T17:03:26.963Z,16.59
2019-04-26T17:06:05.248Z,16.52
2019-04-26T17:08:27.380Z,16.46
2019-04-26T17:10:56.661Z,16.37
2019-04-26T17:13:30.059Z,16.33
2019-04-26T17:15:58.174Z,16.31
2019-04-26T17:18:27.116Z,16.28
2019-04-26T17:20:55.627Z,16.22
2019-04-26T17:23:33.314Z,16.19
2019-04-26T17:26:19.390Z,16.12
2019-04-26T17:28:47.805Z,16.10
2019-04-26T17:31:16.194Z,16.05
2019-04-26T17:33:45.612Z,16.02
2019-04-26T17:36:15.671Z,15.98
2019-04-26T17:38:44.297Z,15.98
2019-04-26T17:41:13.834Z,16.02
2019-04-26T17:43:47.518Z,16.09
2019-04-26T17:46:14.536Z,16.16
2019-04-26T17:48:44.858Z,16.20
2019-04-26T17:51:18.943Z,16.25
2019-04-26T17:53:44.040Z,16.26
2019-04-26T17:56:13.656Z,16.26
2019-04-26T17:58:51.198Z,16.15
2019-04-26T18:01:29.314Z,15.99
2019-04-26T18:03:50.800Z,15.81
2019-04-26T18:06:14.120Z,15.75
2019-04-26T18:08:51.913Z,15.66
2019-04-26T18:11:19.661Z,15.63
2019-04-26T18:13:43.248Z,15.63
2019-04-26T18:16:11.623Z,15.59
2019-04-26T18:18:53.663Z,15.59
2019-04-26T18:21:37.557Z,15.56
2019-04-26T18:24:06.284Z,15.53
2019-04-26T18:26:34.809Z,15.51
2019-04-26T18:29:03.829Z,15.47
2019-04-26T18:31:33.673Z,15.42
2019-04-26T18:34:04.006Z,15.33
2019-04-26T18:36:33.296Z,15.23
2019-04-26T18:39:03.704Z,15.14
2019-04-26T18:41:33.835Z,15.07
2019-04-26T18:44:03.079Z,14.94
2019-04-26T18:46:35.816Z,14.82
2019-04-26T18:49:04.447Z,14.76
2019-04-26T18:51:33.401Z,14.66
2019-04-26T18:54:18.604Z,14.50
2019-04-26T18:56:51.505Z,14.32
2019-04-26T18:59:19.897Z,14.22
2019-04-26T19:01:49.109Z,14.06
2019-04-26T19:04:17.511Z,13.95
2019-04-26T19:06:45.897Z,13.81
2019-04-26T19:09:15.613Z,13.67
2019-04-26T19:11:48.618Z,13.56
2019-04-26T19:14:34.222Z,13.44
2019-04-26T19:17:11.861Z,13.28
2019-04-26T19:19:42.387Z,13.17
2019-04-26T19:22:15.885Z,13.00
2019-04-26T19:24:42.305Z,12.83
2019-04-26T19:27:12.356Z,12.65
2019-04-26T19:29:41.087Z,12.42
2019-04-26T19:32:11.908Z,12.27
2019-04-26T19:34:42.134Z,12.16
2019-04-26T19:37:10.688Z,12.04
2019-04-26T19:39:39.201Z,11.92
2019-04-26T19:42:07.898Z,11.76
2019-04-26T19:44:36.364Z,11.64
2019-04-26T19:47:22.676Z,11.49
2019-04-26T19:50:11.796Z,11.36
2019-04-26T19:52:48.395Z,11.23
2019-04-26T19:55:24.209Z,11.18
2019-04-26T19:58:09.816Z,11.26
2019-04-26T20:00:38.601Z,11.26
2019-04-26T20:03:08.569Z,11.31
2019-04-26T20:05:40.437Z,11.35
2019-04-26T20:08:06.855Z,11.35
2019-04-26T20:10:40.483Z,11.37
2019-04-26T20:13:07.585Z,11.30
2019-04-26T20:15:35.747Z,11.24
2019-04-26T20:18:04.346Z,11.11
2019-04-26T20:20:36.189Z,10.97
2019-04-26T20:23:05.905Z,10.79
2019-04-26T20:25:33.133Z,10.80
2019-04-26T20:28:03.182Z,10.76
2019-04-26T20:30:51.499Z,10.84
2019-04-26T20:33:20.155Z,10.83
2019-04-26T20:35:48.559Z,10.73
2019-04-26T20:38:16.953Z,10.64
2019-04-26T20:40:47.399Z,10.57
2019-04-26T20:43:25.820Z,10.55
2019-04-26T20:46:08.073Z,10.62
2019-04-26T20:48:16.140Z,10.64
2019-04-26T20:50:44.533Z,10.60
2019-04-26T20:53:12.934Z,10.58
2019-04-26T20:55:42.741Z,10.56
2019-04-26T20:58:11.798Z,10.52
2019-04-26T21:00:53.480Z,10.48
2019-04-26T21:03:22.813Z,10.45
2019-04-26T21:05:46.191Z,10.42
2019-04-26T21:08:12.351Z,10.41
2019-04-26T21:10:41.789Z,10.33
2019-04-26T21:13:12.081Z,10.25
2019-04-26T21:15:53.510Z,10.16
2019-04-26T21:18:12.359Z,10.15
2019-04-26T21:20:42.502Z,10.11
2019-04-26T21:23:13.267Z,10.07
2019-04-26T21:25:52.411Z,9.97
2019-04-26T21:28:38.189Z,9.92
2019-04-26T21:31:08.935Z,9.85
2019-04-26T21:33:39.180Z,9.74
2019-04-26T21:36:13.646Z,9.74
2019-04-26T21:38:43.959Z,9.92
2019-04-26T21:41:17.841Z,10.01
2019-04-26T21:43:46.250Z,10.08
2019-04-26T21:46:19.290Z,10.06
2019-04-26T21:48:44.912Z,10.01
2019-04-26T21:51:16.043Z,9.90
2019-04-26T21:53:45.178Z,9.70
2019-04-26T21:56:14.806Z,9.52
2019-04-26T21:58:43.640Z,9.37
2019-04-26T22:01:19.035Z,9.25
2019-04-26T22:03:53.675Z,9.16
2019-04-26T22:06:19.811Z,9.10
2019-04-26T22:08:55.671Z,9.01
2019-04-26T22:11:23.415Z,8.94
2019-04-26T22:13:59.843Z,8.89
2019-04-26T22:16:38.119Z,8.81
2019-04-26T22:19:08.196Z,8.74
2019-04-26T22:21:38.226Z,8.69
2019-04-26T22:24:08.342Z,8.63
2019-04-26T22:26:38.004Z,8.57
2019-04-26T22:29:08.182Z,8.47
2019-04-26T22:31:37.926Z,8.38
2019-04-26T22:34:08.899Z,8.30
2019-04-26T22:36:37.364Z,8.24
2019-04-26T22:39:11.328Z,8.18
2019-04-26T22:41:39.715Z,8.09
2019-04-26T22:44:09.747Z,8.01
2019-04-26T22:46:58.770Z,7.95
2019-04-26T22:49:26.054Z,7.91
2019-04-26T22:51:54.432Z,7.94
2019-04-26T22:54:23.062Z,8.01
2019-04-26T22:56:53.795Z,8.05
2019-04-26T22:59:22.964Z,8.00
2019-04-26T23:01:53.578Z,7.93
2019-04-26T23:04:26.248Z,7.86
2019-04-26T23:06:56.218Z,7.76
2019-04-26T23:09:23.369Z,7.64
2019-04-26T23:11:53.869Z,7.54
2019-04-26T23:14:23.883Z,7.44
2019-04-26T23:17:05.047Z,7.35
2019-04-26T23:19:34.665Z,7.26
2019-04-26T23:22:04.035Z,7.18
2019-04-26T23:24:32.537Z,7.11
2019-04-26T23:27:00.912Z,7.08
2019-04-26T23:29:29.607Z,7.06
2019-04-26T23:31:58.016Z,7.03
2019-04-26T23:34:26.401Z,6.97
2019-04-26T23:36:54.791Z,6.86
2019-04-26T23:39:24.640Z,6.75
2019-04-26T23:41:53.973Z,6.69
2019-04-26T23:44:23.202Z,6.64
2019-04-26T23:46:56.610Z,6.59
2019-04-26T23:49:25.026Z,6.57
2019-04-26T23:51:53.366Z,6.56
2019-04-26T23:54:23.736Z,6.55
2019-04-26T23:56:55.709Z,6.50
2019-04-26T23:59:22.332Z,6.45
